Time;durP1;ratioP1;P1;durP2;ratioP2;P2;SDS_P1;SDS_P2;PMS_P1;PMS_P2;Temp;Humidity;BMP_temperature;BMP_pressure;BME280_temperature;BME280_humidity;BME280_pressure;Samples;Min_cycle;Max_cycle;Signal;HPM_P1;HPM_P2
2023/07/02 00:00:00;;;;;;;14.23;5.65;;;;;;;26.59;52.21;97227.53;4380683;32;20087;-81
2023/07/02 00:02:27;;;;;;;13.80;5.95;;;;;;;26.09;53.76;97226.47;4380571;32;20105;-81
2023/07/02 00:04:54;;;;;;;11.80;5.50;;;;;;;26.12;53.41;97226.09;4380852;32;20114;-81
2023/07/02 00:07:21;;;;;;;13.07;5.93;;;;;;;25.27;56.02;97228.22;4380862;32;20110;-81
2023/07/02 00:09:48;;;;;;;16.75;6.43;;;;;;;25.16;56.19;97218.91;4380353;32;20095;-80
2023/07/02 00:12:15;;;;;;;14.30;5.57;;;;;;;24.86;57.21;97219.75;4379732;32;20083;-81
2023/07/02 00:14:42;;;;;;;13.85;5.60;;;;;;;25.62;55.08;97227.56;4380776;32;20102;-80
2023/07/02 00:17:12;;;;;;;11.27;5.10;;;;;;;25.15;56.50;97225.19;4380586;32;20160;-81
2023/07/02 00:19:41;;;;;;;11.48;5.30;;;;;;;26.00;53.55;97224.91;4380270;32;20161;-81
2023/07/02 00:22:09;;;;;;;11.95;4.72;;;;;;;25.36;54.70;97227.97;4380296;32;20094;-81
2023/07/02 00:24:37;;;;;;;9.93;4.93;;;;;;;25.35;54.69;97223.69;4380651;32;20445;-80
2023/07/02 00:27:04;;;;;;;12.32;5.15;;;;;;;24.65;56.37;97225.66;4380721;32;20094;-80
2023/07/02 00:29:31;;;;;;;11.45;5.25;;;;;;;24.29;58.05;97227.97;4380088;32;20109;-81
2023/07/02 00:31:58;;;;;;;11.45;5.25;;;;;;;24.38;57.42;97216.41;4380640;32;20121;-80
2023/07/02 00:34:26;;;;;;;10.48;4.97;;;;;;;24.33;56.87;97218.72;4380595;32;20347;-81
2023/07/02 00:36:53;;;;;;;13.65;4.80;;;;;;;24.12;57.87;97214.00;4380333;32;20426;-81
2023/07/02 00:39:20;;;;;;;10.88;4.68;;;;;;;23.72;59.38;97220.25;4380403;32;20087;-80
2023/07/02 00:41:47;;;;;;;11.12;4.60;;;;;;;23.20;61.13;97213.50;4380578;32;20075;-80
2023/07/02 00:44:14;;;;;;;10.75;4.50;;;;;;;22.99;62.13;97210.56;4380280;32;20129;-81
2023/07/02 00:46:41;;;;;;;10.32;4.75;;;;;;;22.71;63.55;97213.44;4380555;32;20141;-80
2023/07/02 00:49:08;;;;;;;11.40;4.85;;;;;;;22.37;64.94;97217.94;4380489;32;20099;-80
2023/07/02 00:51:37;;;;;;;13.50;5.22;;;;;;;22.58;64.23;97220.16;4379078;32;20468;-80
2023/07/02 00:54:04;;;;;;;12.65;4.78;;;;;;;22.78;63.56;97217.06;4379933;32;20366;-80
2023/07/02 00:56:31;;;;;;;12.43;5.00;;;;;;;22.89;62.63;97209.88;4380504;32;20375;-80
2023/07/02 00:58:58;;;;;;;9.07;4.25;;;;;;;23.61;60.02;97216.97;4378933;32;20182;-81
2023/07/02 01:01:33;;;;;;;10.80;4.40;;;;;;;23.32;60.31;97219.25;4379466;32;20190;-80
2023/07/02 01:04:02;;;;;;;10.15;4.20;;;;;;;23.32;60.47;97224.53;4380714;32;20099;-81
2023/07/02 01:06:34;;;;;;;11.38;4.80;;;;;;;23.62;59.63;97212.53;4380466;32;20465;-80
2023/07/02 01:09:05;;;;;;;11.12;4.30;;;;;;;23.30;59.93;97210.72;4380475;32;20149;-80
2023/07/02 01:11:45;;;;;;;10.20;4.50;;;;;;;23.03;60.77;97209.22;4379926;32;20164;-81
2023/07/02 01:14:19;;;;;;;10.55;4.05;;;;;;;22.76;61.93;97213.78;4379377;32;20136;-80
2023/07/02 01:16:47;;;;;;;10.50;4.20;;;;;;;22.73;62.14;97215.88;4379353;32;20462;-80
2023/07/02 01:19:19;;;;;;;12.70;4.47;;;;;;;22.43;62.81;97215.47;4390915;32;20095;-80
2023/07/02 01:21:47;;;;;;;9.93;3.90;;;;;;;23.23;60.47;97222.88;4391538;32;20153;-81
2023/07/02 01:24:15;;;;;;;10.43;4.12;;;;;;;22.64;61.49;97227.37;4366782;32;20118;-80
2023/07/02 01:26:42;;;;;;;12.32;4.35;;;;;;;22.20;63.18;97224.94;4379919;32;20098;-80
2023/07/02 01:29:14;;;;;;;11.43;3.97;;;;;;;22.37;63.10;97217.94;4380207;32;20091;-80
2023/07/02 01:31:41;;;;;;;10.18;4.05;;;;;;;23.09;60.73;97224.38;4380301;32;20137;-80
2023/07/02 01:34:09;;;;;;;10.65;3.90;;;;;;;22.71;60.67;97223.12;4379901;32;20098;-81
2023/07/02 01:36:36;;;;;;;10.05;3.70;;;;;;;23.11;59.59;97221.56;4380225;32;20094;-80
2023/07/02 01:39:04;;;;;;;10.30;4.00;;;;;;;22.98;59.80;97216.81;4379976;32;20137;-81
2023/07/02 01:41:44;;;;;;;9.45;3.78;;;;;;;22.05;63.28;97208.09;4379880;32;20145;-80
2023/07/02 01:44:11;;;;;;;10.32;3.60;;;;;;;22.51;61.52;97207.62;4380293;32;20158;-80
2023/07/02 01:46:38;;;;;;;9.35;3.78;;;;;;;22.17;62.31;97218.19;4379867;32;20117;-81
2023/07/02 01:49:05;;;;;;;11.32;3.80;;;;;;;22.47;60.99;97219.47;4380138;32;20103;-80
2023/07/02 01:51:33;;;;;;;9.35;3.90;;;;;;;22.63;60.63;97218.66;4380089;32;20099;-80
2023/07/02 01:54:00;;;;;;;9.20;3.92;;;;;;;22.51;61.03;97212.06;4379820;32;20162;-80
2023/07/02 01:56:28;;;;;;;7.55;3.53;;;;;;;22.45;61.16;97220.59;4380190;32;20112;-80
2023/07/02 01:58:55;;;;;;;9.73;4.07;;;;;;;22.67;60.03;97220.00;4380215;32;20122;-80
2023/07/02 02:01:22;;;;;;;9.00;3.70;;;;;;;22.20;61.58;97212.63;4379648;32;20106;-80
2023/07/02 02:03:49;;;;;;;7.70;3.12;;;;;;;21.87;62.35;97214.25;4380222;32;20150;-80
2023/07/02 02:06:15;;;;;;;9.05;3.60;;;;;;;22.38;61.59;97211.72;4379022;32;20109;-80
2023/07/02 02:08:42;;;;;;;9.18;3.60;;;;;;;22.12;62.19;97211.78;4379720;32;20166;-80
2023/07/02 02:11:09;;;;;;;9.98;4.03;;;;;;;21.77;64.04;97215.34;4379919;32;20091;-80
2023/07/02 02:13:36;;;;;;;9.70;4.10;;;;;;;22.43;60.80;97218.13;4379990;32;20519;-80
2023/07/02 02:16:03;;;;;;;8.55;3.67;;;;;;;22.69;60.98;97219.84;4379760;32;20474;-81
2023/07/02 02:18:30;;;;;;;11.23;3.85;;;;;;;22.42;60.92;97220.91;4380105;32;20083;-80
2023/07/02 02:20:57;;;;;;;8.68;3.42;;;;;;;22.03;61.27;97223.19;4379752;32;20071;-80
2023/07/02 02:23:24;;;;;;;7.47;3.37;;;;;;;22.69;60.10;97223.28;4379647;32;20157;-80
2023/07/02 02:25:51;;;;;;;8.88;3.90;;;;;;;22.40;61.26;97215.81;4379943;32;20438;-80
2023/07/02 02:28:18;;;;;;;11.65;3.65;;;;;;;22.29;60.82;97217.91;4379718;32;20125;-80
2023/07/02 02:30:45;;;;;;;8.68;3.17;;;;;;;22.28;61.03;97227.59;4379789;32;20142;-80
2023/07/02 02:33:12;;;;;;;9.63;3.53;;;;;;;22.02;61.80;97227.63;4380062;32;20532;-80
2023/07/02 02:35:39;;;;;;;10.40;4.00;;;;;;;22.04;61.57;97222.22;4379576;32;20106;-80
2023/07/02 02:38:06;;;;;;;11.82;3.72;;;;;;;22.48;59.93;97222.91;4379845;32;20150;-80
2023/07/02 02:40:34;;;;;;;9.68;3.30;;;;;;;22.25;59.96;97229.72;4379477;32;20430;-80
2023/07/02 02:43:01;;;;;;;7.68;3.28;;;;;;;21.79;62.17;97229.94;4379523;32;20112;-81
2023/07/02 02:45:29;;;;;;;9.40;3.28;;;;;;;22.33;60.16;97235.00;4379811;32;20129;-80
2023/07/02 02:47:56;;;;;;;15.30;4.07;;;;;;;22.20;60.29;97227.56;4379774;32;20169;-80
2023/07/02 02:50:23;;;;;;;7.78;3.20;;;;;;;22.27;60.17;97227.75;4379129;32;20095;-80
2023/07/02 02:52:49;;;;;;;7.50;3.15;;;;;;;22.40;59.75;97228.13;4379863;32;20102;-80
2023/07/02 02:55:16;;;;;;;7.53;3.42;;;;;;;23.04;56.85;97226.66;4379731;32;20154;-80
2023/07/02 02:57:43;;;;;;;8.50;3.42;;;;;;;22.76;58.25;97231.38;4379429;32;20160;-80
2023/07/02 03:00:11;;;;;;;8.07;3.42;;;;;;;22.85;57.90;97221.69;4379348;32;20138;-80
2023/07/02 03:02:38;;;;;;;7.55;3.37;;;;;;;22.68;58.28;97223.47;4379785;32;20137;-80
2023/07/02 03:05:06;;;;;;;7.50;3.10;;;;;;;22.42;58.93;97226.16;4379404;32;20502;-81
2023/07/02 03:07:33;;;;;;;7.68;3.40;;;;;;;22.79;57.22;97237.13;4379569;32;20105;-80
2023/07/02 03:10:00;;;;;;;8.57;3.30;;;;;;;23.32;55.35;97229.78;4379206;32;20146;-80
2023/07/02 03:12:27;;;;;;;8.85;3.28;;;;;;;22.94;57.37;97231.25;4379291;32;20102;-80
2023/07/02 03:14:55;;;;;;;7.45;3.22;;;;;;;23.09;56.69;97240.97;4379461;32;20110;-80
2023/07/02 03:17:22;;;;;;;9.27;3.00;;;;;;;23.98;53.78;97241.06;4378696;32;20167;-80
2023/07/02 03:19:49;;;;;;;9.48;3.30;;;;;;;22.86;56.36;97247.00;4379077;32;20079;-80
2023/07/02 03:22:16;;;;;;;9.35;3.30;;;;;;;23.70;53.95;97256.44;4380113;32;20112;-80
2023/07/02 03:24:43;;;;;;;8.90;3.20;;;;;;;23.55;54.62;97243.09;4379408;32;20150;-80
2023/07/02 03:27:10;;;;;;;7.05;3.22;;;;;;;23.28;55.42;97254.78;4378251;32;20162;-80
2023/07/02 03:29:38;;;;;;;7.53;3.17;;;;;;;23.22;54.99;97248.38;4377904;32;20438;-80
2023/07/02 03:32:05;;;;;;;7.95;2.90;;;;;;;24.46;52.03;97253.31;4379056;32;20129;-80
2023/07/02 03:34:32;;;;;;;8.00;3.25;;;;;;;23.20;54.67;97252.16;4379442;32;20166;-80
2023/07/02 03:36:59;;;;;;;8.35;3.28;;;;;;;24.43;52.23;97256.25;4379252;32;20100;-80
2023/07/02 03:39:26;;;;;;;9.88;3.22;;;;;;;24.36;52.78;97252.69;4378439;32;20105;-81
2023/07/02 03:41:53;;;;;;;7.40;3.28;;;;;;;25.03;50.79;97256.44;4379076;32;20150;-80
2023/07/02 03:44:21;;;;;;;8.32;3.25;;;;;;;24.56;52.51;97259.16;4379101;32;20126;-80
2023/07/02 03:46:47;;;;;;;7.07;3.22;;;;;;;24.00;53.90;97262.81;4378678;32;20487;-80
2023/07/02 03:49:15;;;;;;;12.37;3.53;;;;;;;23.85;55.05;97255.59;4378764;32;20087;-80
2023/07/02 03:51:41;;;;;;;8.00;3.53;;;;;;;23.64;56.39;97258.75;4379044;32;20111;-80
2023/07/02 03:54:08;;;;;;;9.88;3.28;;;;;;;23.00;58.69;97256.91;4378577;32;20103;-81
2023/07/02 03:56:35;;;;;;;8.98;3.65;;;;;;;22.78;59.73;97251.25;4378801;32;20128;-80
2023/07/02 03:59:02;;;;;;;7.45;3.42;;;;;;;22.66;59.88;97256.97;4378748;32;20072;-81
2023/07/02 04:01:29;;;;;;;7.65;3.80;;;;;;;23.98;55.16;97264.78;4378307;32;20152;-80
2023/07/02 04:03:56;;;;;;;8.50;3.12;;;;;;;23.39;56.27;97262.34;4378588;32;20083;-80
2023/07/02 04:06:23;;;;;;;8.90;3.42;;;;;;;23.71;55.68;97261.53;4378456;32;20091;-80
2023/07/02 04:08:50;;;;;;;10.40;3.35;;;;;;;23.44;56.94;97262.69;4377464;32;20484;-80
2023/07/02 04:11:17;;;;;;;8.18;3.22;;;;;;;23.22;57.25;97263.34;4378514;32;20406;-81
2023/07/02 04:13:44;;;;;;;6.97;3.05;;;;;;;24.00;55.04;97268.06;4378358;32;20515;-80
2023/07/02 04:16:11;;;;;;;9.50;3.70;;;;;;;23.71;55.63;97274.69;4378554;32;20106;-80
2023/07/02 04:18:38;;;;;;;7.45;3.22;;;;;;;23.57;56.14;97264.81;4378484;32;20095;-80
2023/07/02 04:21:05;;;;;;;10.10;3.33;;;;;;;24.08;54.58;97276.78;4378085;32;20154;-80
2023/07/02 04:23:32;;;;;;;7.53;3.03;;;;;;;23.38;55.98;97274.69;4378766;32;20129;-80
2023/07/02 04:25:59;;;;;;;9.93;3.37;;;;;;;23.65;55.35;97283.28;4378719;32;20142;-80
2023/07/02 04:28:46;;;;;;;6.90;2.90;;;;;;;23.82;54.56;97286.69;4378106;32;20083;-80
2023/07/02 04:31:13;;;;;;;7.60;3.17;;;;;;;23.52;55.20;97283.75;4380693;32;20070;-80
2023/07/02 04:33:40;;;;;;;7.68;3.08;;;;;;;23.43;55.47;97282.09;4380800;32;20143;-81
2023/07/02 04:36:07;;;;;;;7.78;3.03;;;;;;;23.66;55.40;97293.66;4380429;32;20160;-81
2023/07/02 04:38:34;;;;;;;7.25;3.20;;;;;;;23.79;54.23;97290.50;4380864;32;20157;-80
2023/07/02 04:41:04;;;;;;;7.78;3.03;;;;;;;23.16;56.37;97285.84;4380776;32;20125;-80
2023/07/02 04:43:33;;;;;;;6.82;3.17;;;;;;;23.64;54.95;97292.16;4380572;32;20163;-80
2023/07/02 04:46:00;;;;;;;6.40;2.97;;;;;;;24.01;53.92;97294.25;4380965;32;20509;-80
2023/07/02 04:48:28;;;;;;;7.30;3.10;;;;;;;24.38;52.72;97292.88;4380509;32;20106;-80
2023/07/02 04:50:55;;;;;;;7.70;2.87;;;;;;;24.78;51.22;97299.78;4380930;32;20121;-80
2023/07/02 04:53:21;;;;;;;11.68;3.00;;;;;;;24.28;52.07;97302.75;4380981;32;20130;-80
2023/07/02 04:55:48;;;;;;;9.23;3.08;;;;;;;23.92;53.01;97311.88;4380470;32;20098;-80
2023/07/02 04:58:15;;;;;;;6.82;2.87;;;;;;;24.07;53.23;97308.56;4379789;32;20087;-80
2023/07/02 05:00:42;;;;;;;7.82;3.10;;;;;;;24.43;51.92;97314.25;4380581;32;20118;-80
2023/07/02 05:03:09;;;;;;;8.10;3.03;;;;;;;24.48;51.55;97315.41;4380816;32;20145;-80
2023/07/02 05:05:36;;;;;;;7.32;2.90;;;;;;;24.74;50.89;97314.31;4380851;32;20164;-80
2023/07/02 05:08:06;;;;;;;7.95;3.10;;;;;;;24.37;52.05;97320.22;4380725;32;20162;-81
2023/07/02 05:10:33;;;;;;;6.95;3.03;;;;;;;24.12;52.85;97317.59;4378949;32;20115;-80
2023/07/02 05:13:00;;;;;;;7.85;3.10;;;;;;;24.38;51.82;97320.06;4380696;32;20106;-80
2023/07/02 05:15:27;;;;;;;6.90;2.90;;;;;;;23.93;52.78;97318.00;4380701;32;20090;-81
2023/07/02 05:17:54;;;;;;;6.18;2.75;;;;;;;24.84;50.52;97320.19;4380248;32;20172;-80
2023/07/02 05:20:21;;;;;;;6.37;2.87;;;;;;;24.50;51.53;97320.50;4379998;32;22656;-80
2023/07/02 05:22:48;;;;;;;6.93;3.03;;;;;;;24.91;49.58;97323.78;4380432;32;20106;-81
2023/07/02 05:25:14;;;;;;;6.28;2.75;;;;;;;24.15;51.67;97322.56;4380064;32;20108;-80
2023/07/02 05:27:41;;;;;;;8.65;2.65;;;;;;;24.98;49.83;97324.72;4380538;32;20186;-80
2023/07/02 05:30:09;;;;;;;6.47;2.83;;;;;;;24.74;50.15;97322.22;4380308;32;20094;-80
2023/07/02 05:32:36;;;;;;;7.53;2.80;;;;;;;23.84;52.88;97319.00;4380317;32;20153;-80
2023/07/02 05:35:03;;;;;;;7.97;3.00;;;;;;;24.93;50.20;97334.16;4380656;32;20094;-80
2023/07/02 05:37:30;;;;;;;6.32;2.60;;;;;;;24.70;50.74;97332.31;4380511;32;20109;-80
2023/07/02 05:39:57;;;;;;;5.62;2.58;;;;;;;25.71;48.51;97331.38;4380739;32;20158;-80
2023/07/02 05:42:24;;;;;;;5.50;2.40;;;;;;;26.02;47.76;97330.44;4381094;32;20148;-80
2023/07/02 05:44:51;;;;;;;7.25;2.75;;;;;;;25.86;47.82;97334.91;4380345;32;20086;-81
2023/07/02 05:47:18;;;;;;;8.30;2.67;;;;;;;25.64;48.66;97335.72;4380394;32;20087;-80
2023/07/02 05:49:45;;;;;;;8.07;3.03;;;;;;;26.85;45.21;97335.50;4379896;32;20114;-80
2023/07/02 05:52:12;;;;;;;6.03;2.60;;;;;;;28.33;43.20;97343.69;4378774;32;20348;-80
2023/07/02 05:54:40;;;;;;;6.10;2.55;;;;;;;27.99;42.28;97339.13;4380130;32;20102;-80
2023/07/02 05:57:07;;;;;;;5.95;2.75;;;;;;;27.33;43.91;97335.88;4380225;32;20083;-80
2023/07/02 05:59:34;;;;;;;5.28;2.15;;;;;;;27.66;43.39;97345.00;4379537;32;20123;-81
2023/07/02 06:02:01;;;;;;;5.70;2.62;;;;;;;27.60;42.47;97339.59;4380045;32;20153;-80
2023/07/02 06:04:28;;;;;;;7.95;2.53;;;;;;;26.92;43.83;97336.41;4380156;32;20101;-80
2023/07/02 06:06:56;;;;;;;6.53;2.53;;;;;;;27.71;43.76;97346.22;4379710;32;20087;-80
2023/07/02 06:09:23;;;;;;;6.95;2.97;;;;;;;27.96;42.86;97344.81;4379921;32;20116;-80
2023/07/02 06:11:50;;;;;;;6.78;2.70;;;;;;;29.90;39.45;97354.25;4380115;32;20098;-81
2023/07/02 06:14:17;;;;;;;5.85;2.47;;;;;;;30.22;39.12;97358.78;4379558;32;20086;-81
2023/07/02 06:16:44;;;;;;;6.50;2.60;;;;;;;29.70;40.00;97350.78;4380069;32;20135;-80
2023/07/02 06:19:11;;;;;;;6.12;2.85;;;;;;;29.89;39.02;97352.62;4379781;32;20118;-81
2023/07/02 06:21:38;;;;;;;7.45;2.55;;;;;;;30.20;38.17;97347.53;4379453;32;20130;-81
2023/07/02 06:24:05;;;;;;;8.82;2.80;;;;;;;29.94;39.23;97352.81;4379991;32;20124;-81
2023/07/02 06:26:32;;;;;;;7.90;3.17;;;;;;;30.38;38.56;97352.19;4379955;32;20150;-80
2023/07/02 06:28:59;;;;;;;6.45;2.70;;;;;;;29.74;39.12;97354.66;4379508;32;20091;-81
2023/07/02 06:31:26;;;;;;;7.03;2.75;;;;;;;29.03;41.35;97349.75;4379813;32;20086;-81
2023/07/02 06:33:53;;;;;;;8.18;2.87;;;;;;;29.57;40.20;97341.75;4379537;32;20086;-80
2023/07/02 06:36:20;;;;;;;6.80;2.92;;;;;;;29.18;39.95;97350.44;4379918;32;20123;-81
2023/07/02 06:38:47;;;;;;;6.18;2.60;;;;;;;29.19;40.02;97356.56;4379884;32;20107;-80
2023/07/02 06:41:15;;;;;;;7.68;2.90;;;;;;;28.00;42.28;97353.22;4379455;32;20107;-81
2023/07/02 06:43:43;;;;;;;8.23;2.97;;;;;;;28.27;42.03;97357.69;4379993;32;20087;-80
2023/07/02 06:46:11;;;;;;;6.40;3.05;;;;;;;28.71;41.44;97373.31;4379849;32;20158;-80
2023/07/02 06:48:38;;;;;;;6.85;2.92;;;;;;;27.41;43.31;97359.56;4379475;32;20146;-80
2023/07/02 06:51:06;;;;;;;6.03;2.90;;;;;;;27.51;44.36;97362.72;4379739;32;20117;-80
2023/07/02 06:53:34;;;;;;;6.82;3.00;;;;;;;28.19;42.94;97368.47;4378798;32;20082;-80
2023/07/02 06:56:01;;;;;;;6.93;3.05;;;;;;;28.01;43.01;97379.53;4379299;32;20117;-80
2023/07/02 06:58:28;;;;;;;8.25;3.30;;;;;;;27.67;43.56;97373.13;4379838;32;20639;-80
2023/07/02 07:00:55;;;;;;;7.43;3.03;;;;;;;26.21;46.44;97377.53;4379516;32;20449;-80
2023/07/02 07:03:21;;;;;;;10.88;3.28;;;;;;;26.71;45.91;97379.50;4379320;32;20090;-80
2023/07/02 07:05:48;;;;;;;8.82;2.70;;;;;;;26.35;47.16;97378.53;4379580;32;20112;-80
2023/07/02 07:08:15;;;;;;;8.45;3.15;;;;;;;26.94;45.80;97365.34;4379637;32;20111;-80
2023/07/02 07:10:45;;;;;;;6.75;2.92;;;;;;;27.25;45.91;97373.06;4379018;32;20460;-80
2023/07/02 07:13:12;;;;;;;6.65;2.90;;;;;;;26.88;45.83;97364.22;4379604;32;20422;-80
2023/07/02 07:15:39;;;;;;;8.27;3.22;;;;;;;27.58;45.89;97363.63;4379429;32;20095;-81
2023/07/02 07:18:08;;;;;;;5.85;2.70;;;;;;;27.27;46.81;97368.41;4379111;32;20094;-80
2023/07/02 07:20:35;;;;;;;6.72;2.78;;;;;;;27.77;45.51;97361.38;4378912;32;20122;-80
2023/07/02 07:23:03;;;;;;;6.82;2.87;;;;;;;28.01;45.32;97360.97;4379000;32;20162;-81
2023/07/02 07:25:30;;;;;;;6.43;2.70;;;;;;;28.37;45.37;97370.63;4378172;32;20083;-81
2023/07/02 07:27:59;;;;;;;6.37;2.67;;;;;;;29.43;44.30;97357.84;4379278;32;20104;-81
2023/07/02 07:30:26;;;;;;;7.30;2.55;;;;;;;29.36;42.36;97371.94;4378696;32;20087;-80
2023/07/02 07:32:53;;;;;;;6.55;2.75;;;;;;;29.30;43.49;97379.91;4379317;32;20108;-81
2023/07/02 07:35:21;;;;;;;7.12;2.58;;;;;;;29.45;43.02;97382.38;4379108;32;20091;-80
2023/07/02 07:37:49;;;;;;;7.70;2.60;;;;;;;29.52;42.79;97388.56;4378820;32;20157;-80
2023/07/02 07:40:16;;;;;;;5.40;2.53;;;;;;;30.14;41.26;97387.44;4378964;32;20094;-80
2023/07/02 07:42:43;;;;;;;7.18;2.75;;;;;;;29.98;41.80;97393.09;4379229;32;20157;-80
2023/07/02 07:45:11;;;;;;;6.47;2.47;;;;;;;29.28;42.43;97381.94;4378538;32;20449;-80
2023/07/02 07:47:39;;;;;;;6.43;2.80;;;;;;;28.68;44.26;97389.59;4379178;32;20111;-80
2023/07/02 07:50:10;;;;;;;6.62;2.70;;;;;;;27.07;47.18;97384.88;4379012;32;20137;-80
2023/07/02 07:52:41;;;;;;;7.00;2.60;;;;;;;26.91;48.75;97389.53;4378831;32;20562;-80
2023/07/02 07:55:08;;;;;;;7.57;2.90;;;;;;;27.42;47.97;97386.87;4378639;32;20154;-80
2023/07/02 07:57:36;;;;;;;5.57;2.30;;;;;;;28.09;47.42;97383.88;4380741;32;20095;-80
2023/07/02 08:00:06;;;;;;;6.75;2.60;;;;;;;27.76;47.07;97371.16;4378634;32;20106;-80
2023/07/02 08:02:33;;;;;;;6.90;2.42;;;;;;;27.67;47.94;97385.56;4378957;32;20142;-80
2023/07/02 08:05:00;;;;;;;6.22;2.65;;;;;;;27.76;49.17;97388.91;4380383;32;20083;-81
2023/07/02 08:07:27;;;;;;;6.85;2.40;;;;;;;27.96;47.91;97369.47;4380999;32;20136;-80
2023/07/02 08:09:54;;;;;;;6.12;2.20;;;;;;;27.71;48.19;97370.09;4380543;32;20102;-80
2023/07/02 08:12:21;;;;;;;5.37;2.22;;;;;;;27.75;48.40;97377.47;4380585;32;20094;-81
2023/07/02 08:14:49;;;;;;;7.47;2.30;;;;;;;27.50;49.57;97379.63;4380821;32;20174;-80
2023/07/02 08:17:16;;;;;;;4.45;2.15;;;;;;;27.29;49.10;97392.84;4392166;32;20141;-80
2023/07/02 08:19:43;;;;;;;6.25;2.28;;;;;;;27.87;47.98;97409.59;4380245;32;20098;-80
2023/07/02 08:22:10;;;;;;;4.57;1.80;;;;;;;27.54;47.45;97417.16;4380657;32;20112;-80
2023/07/02 08:24:37;;;;;;;4.82;1.83;;;;;;;27.76;47.54;97407.47;4380803;32;20112;-80
2023/07/02 08:27:04;;;;;;;6.55;2.17;;;;;;;28.36;46.15;97420.22;4379208;32;20465;-80
2023/07/02 08:29:31;;;;;;;3.53;1.80;;;;;;;28.54;45.19;97406.47;4380579;32;20142;-80
2023/07/02 08:31:58;;;;;;;5.05;1.95;;;;;;;28.30;47.47;97420.19;4380799;32;20449;-80
2023/07/02 08:34:25;;;;;;;7.10;1.95;;;;;;;29.13;45.11;97426.41;4380311;32;20108;-80
2023/07/02 08:36:52;;;;;;;5.82;2.05;;;;;;;29.27;44.71;97422.81;4380712;32;20106;-81
2023/07/02 08:39:19;;;;;;;4.90;1.80;;;;;;;29.31;44.10;97432.00;4380506;32;20122;-80
2023/07/02 08:41:47;;;;;;;4.30;1.70;;;;;;;28.74;43.77;97430.50;4380284;32;20441;-80
2023/07/02 08:44:16;;;;;;;5.22;1.62;;;;;;;29.17;44.22;97431.16;4380708;32;20138;-80
2023/07/02 08:46:43;;;;;;;3.10;1.62;;;;;;;29.37;43.81;97440.00;4380619;32;20091;-80
2023/07/02 08:49:10;;;;;;;4.18;1.50;;;;;;;29.35;43.70;97442.06;4380214;32;20479;-80
2023/07/02 08:51:37;;;;;;;3.92;1.52;;;;;;;29.61;42.99;97451.16;4379324;32;20172;-80
2023/07/02 08:54:04;;;;;;;2.40;1.45;;;;;;;29.16;43.40;97447.28;4380202;32;20083;-80
2023/07/02 08:56:31;;;;;;;3.83;1.42;;;;;;;30.51;42.78;97444.50;4380924;32;20111;-80
2023/07/02 08:58:58;;;;;;;2.47;1.25;;;;;;;29.61;43.22;97444.00;4380501;32;20182;-79
2023/07/02 09:01:25;;;;;;;4.03;1.20;;;;;;;30.05;41.97;97447.97;4380013;32;20109;-79
2023/07/02 09:03:59;;;;;;;2.30;1.30;;;;;;;31.01;40.62;97453.66;4380500;32;20087;-79
2023/07/02 09:06:26;;;;;;;2.37;1.40;;;;;;;30.61;41.12;97457.38;4380460;32;20117;-79
2023/07/02 09:08:53;;;;;;;3.90;1.50;;;;;;;30.07;41.74;97453.09;4379998;32;20099;-79
2023/07/02 09:11:20;;;;;;;3.22;1.70;;;;;;;29.28;44.35;97451.84;4380328;32;20449;-79
2023/07/02 09:13:48;;;;;;;5.12;1.77;;;;;;;29.01;43.42;97455.37;4380418;32;20099;-79
2023/07/02 09:16:29;;;;;;;2.67;1.40;;;;;;;29.04;44.23;97445.19;4379562;32;20096;-79
2023/07/02 09:19:03;;;;;;;4.45;1.50;;;;;;;28.95;43.99;97451.69;4380360;32;20106;-79
2023/07/02 09:21:45;;;;;;;2.85;1.10;;;;;;;28.66;44.43;97451.88;4380250;32;20106;-79
2023/07/02 09:24:16;;;;;;;1.92;1.25;;;;;;;28.88;44.47;97455.28;4379930;32;20075;-79
2023/07/02 09:26:49;;;;;;;2.75;1.20;;;;;;;29.39;43.95;97464.53;4380425;32;20116;-79
2023/07/02 09:29:26;;;;;;;4.87;1.35;;;;;;;29.20;43.10;97462.63;4378758;32;20599;-78
2023/07/02 09:31:53;;;;;;;2.40;1.10;;;;;;;29.81;41.29;97462.66;4380154;32;20144;-78
2023/07/02 09:34:33;;;;;;;1.15;0.88;;;;;;;29.86;42.76;97462.84;4380243;32;20101;-78
2023/07/02 09:37:01;;;;;;;1.27;1.10;;;;;;;29.15;42.89;97462.41;4379962;32;20438;-77
2023/07/02 09:39:33;;;;;;;3.12;1.20;;;;;;;29.19;43.49;97463.63;4379969;32;20269;-77
2023/07/02 09:42:02;;;;;;;2.22;1.20;;;;;;;29.79;42.39;97458.56;4391388;32;20165;-77
2023/07/02 09:44:31;;;;;;;2.10;1.20;;;;;;;30.32;42.15;97463.97;4378681;32;20101;-78
2023/07/02 09:47:08;;;;;;;3.83;1.27;;;;;;;30.66;41.37;97465.63;4380188;32;20094;-77
2023/07/02 09:49:37;;;;;;;2.22;1.30;;;;;;;31.21;42.27;97474.12;4380148;32;20094;-77
2023/07/02 09:52:05;;;;;;;1.85;1.10;;;;;;;31.84;39.74;97468.94;4379707;32;20098;-78
2023/07/02 09:54:32;;;;;;;2.60;1.37;;;;;;;30.32;40.82;97466.66;4380115;32;20109;-78
2023/07/02 09:57:00;;;;;;;3.05;1.20;;;;;;;29.74;40.80;97461.81;4380173;32;20182;-78
2023/07/02 09:59:27;;;;;;;2.10;1.02;;;;;;;29.94;41.82;97467.19;4379657;32;20378;-78
2023/07/02 10:01:55;;;;;;;2.97;1.10;;;;;;;29.53;41.57;97476.06;4380021;32;20094;-78
2023/07/02 10:04:25;;;;;;;2.15;1.08;;;;;;;29.92;41.30;97469.22;4379787;32;20110;-78
2023/07/02 10:06:54;;;;;;;2.72;1.30;;;;;;;30.72;42.49;97473.59;4380107;32;20175;-80
2023/07/02 10:09:36;;;;;;;1.77;1.05;;;;;;;30.71;41.19;97479.13;4379764;32;20560;-79
2023/07/02 10:12:27;;;;;;;3.08;1.20;;;;;;;31.32;41.11;97476.13;4379907;32;20108;-79
2023/07/02 10:14:56;;;;;;;3.75;1.50;;;;;;;30.39;41.45;97476.25;4379454;32;20711;-79
2023/07/02 10:17:32;;;;;;;1.67;1.05;;;;;;;30.44;41.71;97481.78;4380044;32;20105;-79
2023/07/02 10:20:11;;;;;;;4.43;1.33;;;;;;;30.14;42.13;97485.87;4379045;32;20094;-79
2023/07/02 10:22:52;;;;;;;3.22;1.30;;;;;;;29.64;43.52;97483.47;4379862;32;20138;-79
2023/07/02 10:25:26;;;;;;;2.62;1.33;;;;;;;29.13;42.61;97476.88;4379738;32;20133;-79
2023/07/02 10:27:54;;;;;;;2.55;1.35;;;;;;;29.90;42.10;97472.09;4378786;32;20143;-79
2023/07/02 10:30:32;;;;;;;2.03;1.20;;;;;;;30.46;41.48;97476.25;4379628;32;20103;-79
2023/07/02 10:33:09;;;;;;;3.53;1.17;;;;;;;30.27;40.51;97467.25;4378709;32;20220;-82
2023/07/02 10:35:37;;;;;;;3.37;1.23;;;;;;;31.24;40.02;97465.72;4379942;32;20079;-83
2023/07/02 10:38:06;;;;;;;2.90;1.50;;;;;;;30.12;41.01;97466.62;4379881;32;20114;-83
2023/07/02 10:40:33;;;;;;;2.42;1.20;;;;;;;29.96;42.02;97467.78;4379220;32;20095;-83
2023/07/02 10:43:00;;;;;;;2.45;1.50;;;;;;;29.24;42.26;97460.38;4379805;32;20082;-83
2023/07/02 10:45:36;;;;;;;3.85;1.70;;;;;;;30.04;41.55;97469.44;4379810;32;20174;-82
2023/07/02 10:48:04;;;;;;;3.37;1.50;;;;;;;29.74;41.79;97459.16;4379359;32;20158;-83
2023/07/02 10:50:34;;;;;;;2.53;1.50;;;;;;;29.83;41.80;97463.28;4379442;32;20099;-83
2023/07/02 10:53:02;;;;;;;4.70;1.85;;;;;;;30.39;40.66;97464.78;4379823;32;20100;-82
2023/07/02 10:55:31;;;;;;;3.22;1.73;;;;;;;30.47;41.53;97464.56;4379509;32;20426;-83
2023/07/02 10:58:08;;;;;;;5.03;1.67;;;;;;;31.48;39.03;97459.69;4379613;32;20495;-83
2023/07/02 11:00:55;;;;;;;3.05;1.70;;;;;;;31.31;39.46;97466.50;4379080;32;20110;-83
2023/07/02 11:03:23;;;;;;;;;;;;;;;31.85;38.91;97462.56;4379535;32;20161;-83
2023/07/02 11:05:51;;;;;;;3.28;1.50;;;;;;;31.86;39.19;97469.53;4379539;32;20045;-83
2023/07/02 11:08:21;;;;;;;3.40;1.70;;;;;;;32.08;37.81;97480.69;4379190;32;20234;-83
2023/07/02 11:10:48;;;;;;;3.25;1.55;;;;;;;31.66;38.56;97466.94;4379425;32;20104;-83
2023/07/02 11:13:17;;;;;;;4.18;1.50;;;;;;;30.89;39.14;97475.81;4379536;32;20095;-83
2023/07/02 11:15:45;;;;;;;3.37;1.60;;;;;;;30.79;39.35;97462.94;4379018;32;20146;-83
2023/07/02 11:18:15;;;;;;;3.20;1.60;;;;;;;31.75;38.94;97464.88;4379376;32;20442;-83
2023/07/02 11:20:45;;;;;;;4.80;1.60;;;;;;;30.54;40.48;97468.06;4379005;32;20414;-83
2023/07/02 11:23:23;;;;;;;4.93;1.50;;;;;;;30.71;40.17;97466.62;4379015;32;20105;-83
2023/07/02 11:26:00;;;;;;;3.72;1.42;;;;;;;30.46;39.92;97462.94;4378196;32;20074;-83
2023/07/02 11:28:29;;;;;;;3.92;1.60;;;;;;;30.36;40.27;97454.56;4379090;32;20520;-83
2023/07/02 11:30:57;;;;;;;4.60;1.60;;;;;;;30.55;39.31;97464.38;4379017;32;20134;-82
2023/07/02 11:33:36;;;;;;;3.55;1.60;;;;;;;31.16;39.44;97460.56;4379289;32;20083;-83
2023/07/02 11:36:05;;;;;;;5.78;1.60;;;;;;;30.98;38.52;97461.25;4377775;32;20154;-83